Time;durP1;ratioP1;P1;durP2;ratioP2;P2;SDS_P1;SDS_P2;PMS_P1;PMS_P2;Temp;Humidity;BMP_temperature;BMP_pressure;BME280_temperature;BME280_humidity;BME280_pressure;Samples;Min_cycle;Max_cycle;Signal;HPM_P1;HPM_P2
2023/03/29 00:00:36;;;;;;;24.45;15.10;;;-0.80;99.90;;;;;;5041662;28;20223;-82
2023/03/29 00:03:03;;;;;;;26.42;16.08;;;-0.80;99.90;;;;;;5039228;28;20274;-80
2023/03/29 00:05:33;;;;;;;32.10;20.83;;;-0.80;99.90;;;;;;5039797;28;20215;-82
2023/03/29 00:08:02;;;;;;;40.85;23.73;;;-0.80;99.90;;;;;;5046781;28;20207;-83
2023/03/29 00:10:34;;;;;;;31.58;18.00;;;-0.80;99.90;;;;;;5040226;28;20504;-79
2023/03/29 00:13:01;;;;;;;26.25;15.82;;;-0.80;99.90;;;;;;5045733;28;20215;-82
2023/03/29 00:15:28;;;;;;;56.83;30.40;;;-0.80;99.90;;;;;;5045309;28;20199;-81
2023/03/29 00:17:56;;;;;;;27.88;16.73;;;-0.80;99.90;;;;;;5051127;28;20208;-81
2023/03/29 00:20:24;;;;;;;30.10;15.98;;;-0.80;99.90;;;;;;5038558;28;20272;-82
2023/03/29 00:22:51;;;;;;;26.80;16.23;;;-0.70;99.90;;;;;;5044012;28;20221;-81
2023/03/29 00:25:18;;;;;;;24.02;16.50;;;-0.70;99.90;;;;;;5039993;28;20204;-80
2023/03/29 00:27:44;;;;;;;26.63;15.70;;;-0.90;99.90;;;;;;5043470;28;20239;-80
2023/03/29 00:30:12;;;;;;;31.60;16.08;;;-0.90;99.90;;;;;;5046825;28;20248;-81
2023/03/29 00:32:39;;;;;;;21.40;15.57;;;-1.00;99.90;;;;;;5063106;28;20238;-81
2023/03/29 00:35:08;;;;;;;19.52;15.40;;;-1.00;99.90;;;;;;5059413;28;20208;-81
2023/03/29 00:37:35;;;;;;;25.10;15.80;;;-0.90;99.90;;;;;;5045335;28;20496;-79
2023/03/29 00:40:09;;;;;;;24.05;16.80;;;-1.00;99.90;;;;;;5056574;28;20199;-81
2023/03/29 00:42:36;;;;;;;28.67;16.95;;;-1.10;99.90;;;;;;5046745;28;20504;-80
2023/03/29 00:45:09;;;;;;;30.73;16.33;;;-1.20;99.90;;;;;;5057025;28;20425;-81
2023/03/29 00:47:41;;;;;;;23.48;15.35;;;-1.20;99.90;;;;;;5051951;28;20257;-81
2023/03/29 00:50:43;;;;;;;26.40;15.45;;;-1.20;99.90;;;;;;5051728;28;20222;-78
2023/03/29 00:53:32;;;;;;;28.73;14.85;;;-1.20;99.90;;;;;;5044592;28;20214;-79
2023/03/29 00:56:06;;;;;;;26.17;16.10;;;-1.30;99.90;;;;;;5052409;28;20237;-80
2023/03/29 00:58:54;;;;;;;19.45;15.25;;;-1.20;99.90;;;;;;5064513;28;20261;-80
2023/03/29 01:01:32;;;;;;;25.05;14.65;;;-1.30;99.90;;;;;;5046932;28;20209;-80
2023/03/29 01:04:07;;;;;;;31.70;18.02;;;-1.50;99.90;;;;;;5039234;28;20201;-80
2023/03/29 01:06:42;;;;;;;24.98;16.60;;;-1.60;99.90;;;;;;5044276;28;20234;-82
2023/03/29 01:09:13;;;;;;;23.50;15.65;;;-1.60;99.90;;;;;;5059563;28;20238;-80
2023/03/29 01:11:46;;;;;;;25.55;15.02;;;-1.40;99.90;;;;;;5043893;28;20200;-79
2023/03/29 01:14:25;;;;;;;28.63;15.70;;;-1.30;99.90;;;;;;5047336;28;20215;-82
2023/03/29 01:16:53;;;;;;;29.10;16.85;;;-1.30;99.90;;;;;;5053735;28;20266;-82
2023/03/29 01:19:25;;;;;;;21.48;15.57;;;-1.30;99.90;;;;;;5056540;28;20211;-80
2023/03/29 01:22:12;;;;;;;21.65;15.88;;;-1.30;99.90;;;;;;5056788;28;20199;-80
2023/03/29 01:24:59;;;;;;;17.67;14.35;;;-1.30;99.90;;;;;;5052066;28;20260;-81
2023/03/29 01:27:48;;;;;;;26.70;15.95;;;-1.30;99.90;;;;;;5066459;28;20407;-81
2023/03/29 01:30:24;;;;;;;22.77;15.73;;;-1.30;99.90;;;;;;5049734;28;20201;-83
2023/03/29 01:32:57;;;;;;;23.20;15.25;;;-1.40;99.90;;;;;;5052594;28;20203;-81
2023/03/29 01:35:37;;;;;;;24.55;14.57;;;-1.40;99.90;;;;;;5043776;28;20204;-81
2023/03/29 01:38:28;;;;;;;26.77;16.15;;;-1.30;99.90;;;;;;5045232;28;20282;-80
2023/03/29 01:40:55;;;;;;;21.98;16.85;;;-1.40;99.90;;;;;;5049194;28;20215;-81
2023/03/29 01:43:43;;;;;;;24.15;14.93;;;-1.50;99.90;;;;;;5042523;28;20749;-80
2023/03/29 01:46:32;;;;;;;19.08;14.68;;;-1.50;99.90;;;;;;5034252;28;20205;-81
2023/03/29 01:49:09;;;;;;;23.50;14.07;;;-1.70;99.90;;;;;;5039092;28;20217;-81
2023/03/29 01:51:47;;;;;;;19.88;13.25;;;-1.70;99.90;;;;;;5042321;28;20195;-82
2023/03/29 01:54:21;;;;;;;18.25;14.98;;;-1.70;99.90;;;;;;5049544;28;20196;-82
2023/03/29 01:56:52;;;;;;;22.60;12.35;;;-1.70;99.90;;;;;;5052310;28;20226;-81
2023/03/29 01:59:23;;;;;;;23.20;15.20;;;-1.70;99.90;;;;;;5053319;28;20228;-81
2023/03/29 02:01:52;;;;;;;26.25;15.68;;;-1.80;99.90;;;;;;5044066;28;20397;-80
2023/03/29 02:04:46;;;;;;;18.98;13.05;;;-1.80;99.90;;;;;;5056324;28;20206;-80
2023/03/29 02:07:16;;;;;;;24.98;14.65;;;-1.80;99.90;;;;;;5045684;28;20196;-79
2023/03/29 02:09:45;;;;;;;20.17;12.70;;;-1.80;99.90;;;;;;5060685;28;20274;-81
2023/03/29 02:12:15;;;;;;;18.38;12.50;;;-2.00;99.90;;;;;;5071767;28;20196;-79
2023/03/29 02:14:42;;;;;;;27.38;14.35;;;-2.10;99.90;;;;;;5066939;28;20188;-80
2023/03/29 02:17:20;;;;;;;19.13;12.60;;;-1.90;99.90;;;;;;5059662;28;20212;-81
2023/03/29 02:19:52;;;;;;;24.02;13.52;;;-1.70;99.90;;;;;;5053041;28;20201;-81
2023/03/29 02:22:39;;;;;;;16.30;11.35;;;-1.70;99.90;;;;;;5053472;28;20200;-80
2023/03/29 02:25:08;;;;;;;21.23;12.63;;;-1.80;99.90;;;;;;5041838;28;20204;-82
2023/03/29 02:27:36;;;;;;;19.10;12.50;;;-1.90;99.90;;;;;;5053196;28;20227;-80
2023/03/29 02:30:09;;;;;;;24.88;13.00;;;-1.90;99.90;;;;;;5043361;28;20204;-80
2023/03/29 02:32:44;;;;;;;19.75;13.05;;;-1.70;99.90;;;;;;5056095;28;20222;-80
2023/03/29 02:35:20;;;;;;;17.25;12.90;;;-1.70;99.90;;;;;;5047827;28;20272;-81
2023/03/29 02:37:53;;;;;;;21.40;13.30;;;-1.50;99.90;;;;;;5053055;28;20230;-80
2023/03/29 02:40:22;;;;;;;21.92;12.18;;;-1.60;99.90;;;;;;5048945;28;20523;-80
2023/03/29 02:42:49;;;;;;;19.15;13.38;;;-1.70;99.90;;;;;;5040041;28;20211;-81
2023/03/29 02:45:17;;;;;;;19.80;14.13;;;-1.60;99.90;;;;;;5038319;28;20207;-81
2023/03/29 02:47:53;;;;;;;18.83;13.23;;;-1.60;99.90;;;;;;5046527;28;20274;-80
2023/03/29 02:50:20;;;;;;;23.55;16.05;;;-1.60;99.90;;;;;;5049623;28;20250;-81
2023/03/29 02:52:54;;;;;;;24.20;14.57;;;-1.60;99.90;;;;;;5041151;28;20212;-82
2023/03/29 02:55:29;;;;;;;24.27;16.17;;;-1.60;99.90;;;;;;5051217;28;20250;-81
2023/03/29 02:57:56;;;;;;;27.83;16.48;;;-1.50;99.90;;;;;;5049695;28;20208;-81
2023/03/29 03:00:24;;;;;;;28.08;17.40;;;-1.50;99.90;;;;;;5039863;28;20204;-81
2023/03/29 03:02:51;;;;;;;33.28;19.73;;;-1.50;99.90;;;;;;5043297;28;20220;-81
2023/03/29 03:05:18;;;;;;;33.03;18.40;;;-1.40;99.90;;;;;;5033146;28;20243;-81
2023/03/29 03:07:45;;;;;;;24.40;14.88;;;-1.40;99.90;;;;;;5041779;28;20235;-80
2023/03/29 03:10:12;;;;;;;36.20;19.88;;;-1.40;99.90;;;;;;5047407;28;20208;-80
2023/03/29 03:12:40;;;;;;;26.27;14.93;;;-1.30;99.90;;;;;;5044980;28;20232;-81
2023/03/29 03:15:07;;;;;;;31.27;14.95;;;-1.20;99.90;;;;;;5044135;28;20227;-80
2023/03/29 03:17:38;;;;;;;19.50;15.00;;;-1.20;99.90;;;;;;5047326;28;20254;-81
2023/03/29 03:20:11;;;;;;;20.92;12.75;;;-1.30;99.90;;;;;;5052936;28;20227;-80
2023/03/29 03:22:47;;;;;;;18.20;12.20;;;-1.20;99.90;;;;;;5041589;28;20204;-80
2023/03/29 03:25:19;;;;;;;18.52;11.18;;;-1.20;99.90;;;;;;5052514;28;20203;-80
2023/03/29 03:27:48;;;;;;;25.10;13.80;;;-1.10;99.90;;;;;;5049297;28;20232;-81
2023/03/29 03:30:15;;;;;;;24.23;13.10;;;-1.10;99.90;;;;;;5052331;28;20492;-80
2023/03/29 03:32:43;;;;;;;17.48;11.43;;;-1.00;99.90;;;;;;5039568;28;20670;-79
2023/03/29 03:35:10;;;;;;;22.63;12.57;;;-1.10;99.90;;;;;;5053172;28;20203;-80
2023/03/29 03:37:38;;;;;;;19.65;10.63;;;-1.10;99.90;;;;;;5045930;28;20208;-79
2023/03/29 03:40:07;;;;;;;18.45;11.23;;;-1.20;99.90;;;;;;5034062;28;20203;-79
2023/03/29 03:42:34;;;;;;;19.05;13.13;;;-1.20;99.90;;;;;;5041017;28;20205;-79
2023/03/29 03:45:01;;;;;;;22.23;12.52;;;-1.10;99.90;;;;;;5038272;28;20228;-78
2023/03/29 03:47:29;;;;;;;20.00;13.27;;;-1.00;99.90;;;;;;5038410;28;20570;-78
2023/03/29 03:49:56;;;;;;;26.90;15.35;;;-0.80;99.90;;;;;;5042928;28;20562;-79
2023/03/29 03:52:24;;;;;;;25.38;13.32;;;-1.00;99.90;;;;;;5035894;28;20207;-80
2023/03/29 03:54:50;;;;;;;17.73;12.90;;;-1.00;99.90;;;;;;5040035;28;20226;-79
2023/03/29 03:57:18;;;;;;;21.73;11.77;;;-1.10;99.90;;;;;;5040697;28;20259;-81
2023/03/29 03:59:46;;;;;;;20.27;12.98;;;-1.00;99.90;;;;;;5049092;28;20204;-80
2023/03/29 04:02:15;;;;;;;26.23;15.13;;;-1.10;99.90;;;;;;5040253;28;20208;-81
2023/03/29 04:04:45;;;;;;;23.00;13.85;;;-1.00;99.90;;;;;;5045730;28;20415;-80
2023/03/29 04:07:13;;;;;;;14.73;9.25;;;-0.90;99.90;;;;;;5050035;28;20250;-80
2023/03/29 04:09:40;;;;;;;16.77;10.73;;;-0.70;99.90;;;;;;5038149;28;20709;-80
2023/03/29 04:12:09;;;;;;;19.63;11.70;;;-0.70;99.90;;;;;;5046762;28;20435;-79
2023/03/29 04:14:36;;;;;;;16.00;10.25;;;-0.70;99.90;;;;;;5043669;28;20205;-82
2023/03/29 04:17:03;;;;;;;12.90;9.63;;;-0.70;99.90;;;;;;5042058;28;20228;-80
2023/03/29 04:19:30;;;;;;;12.05;8.52;;;-0.60;99.90;;;;;;5039372;28;20215;-80
2023/03/29 04:21:58;;;;;;;13.45;9.27;;;-0.50;99.90;;;;;;5038999;28;20200;-80
2023/03/29 04:24:25;;;;;;;12.00;7.97;;;-0.60;99.90;;;;;;5037740;28;20250;-81
2023/03/29 04:26:52;;;;;;;13.30;10.20;;;-0.50;99.90;;;;;;5046926;28;20208;-80
2023/03/29 04:29:19;;;;;;;14.65;9.13;;;-0.40;99.90;;;;;;5041121;28;20287;-81
2023/03/29 04:31:47;;;;;;;15.48;8.43;;;-0.40;99.90;;;;;;5045992;28;20242;-80
2023/03/29 04:34:16;;;;;;;15.13;8.52;;;-0.40;99.90;;;;;;5037192;28;20208;-80
2023/03/29 04:36:49;;;;;;;14.60;7.45;;;-0.40;99.90;;;;;;5038891;28;20207;-80
2023/03/29 04:39:16;;;;;;;10.32;8.10;;;-0.40;99.90;;;;;;5041919;28;20265;-81
2023/03/29 04:41:44;;;;;;;13.95;7.85;;;-0.40;99.90;;;;;;5040498;28;20791;-80
2023/03/29 04:44:13;;;;;;;21.58;9.18;;;-0.40;99.90;;;;;;5045004;28;20204;-82
2023/03/29 04:46:41;;;;;;;15.93;8.52;;;-0.30;99.90;;;;;;5045723;28;20254;-81
2023/03/29 04:49:08;;;;;;;15.65;8.38;;;-0.30;99.90;;;;;;5041080;28;20812;-81
2023/03/29 04:51:37;;;;;;;18.63;9.02;;;-0.30;99.90;;;;;;5050792;28;20209;-81
2023/03/29 04:54:05;;;;;;;12.55;8.48;;;-0.30;99.90;;;;;;5041827;28;20215;-80
2023/03/29 04:56:33;;;;;;;17.23;9.45;;;-0.40;99.90;;;;;;5045871;28;20208;-80
2023/03/29 04:59:00;;;;;;;14.55;10.40;;;-0.50;99.90;;;;;;5038130;28;20216;-82
2023/03/29 05:01:34;;;;;;;19.38;9.45;;;-0.60;99.90;;;;;;5044066;28;20260;-81
2023/03/29 05:04:03;;;;;;;16.17;9.77;;;-0.50;99.90;;;;;;5040324;28;20204;-82
2023/03/29 05:06:32;;;;;;;18.58;10.15;;;-0.20;99.90;;;;;;5039053;28;20235;-80
2023/03/29 05:09:03;;;;;;;18.33;11.20;;;-0.20;99.90;;;;;;5043967;28;20235;-81
2023/03/29 05:11:30;;;;;;;16.80;9.90;;;0.10;99.90;;;;;;5043711;28;20250;-81
2023/03/29 05:14:02;;;;;;;15.15;9.88;;;0.20;99.90;;;;;;5051059;28;20200;-80
2023/03/29 05:16:29;;;;;;;16.88;9.48;;;0.40;99.90;;;;;;5049501;28;20191;-81
2023/03/29 05:18:57;;;;;;;16.63;9.32;;;0.40;99.90;;;;;;5054050;28;20216;-81
2023/03/29 05:21:30;;;;;;;13.57;8.80;;;0.60;99.90;;;;;;5044772;28;20283;-81
2023/03/29 05:23:57;;;;;;;20.13;10.73;;;0.50;99.90;;;;;;5053026;28;20285;-81
2023/03/29 05:26:25;;;;;;;13.10;9.10;;;0.70;99.90;;;;;;5039563;28;20204;-81
2023/03/29 05:28:53;;;;;;;17.92;10.55;;;0.90;99.90;;;;;;5054871;28;20235;-81
2023/03/29 05:31:19;;;;;;;13.15;9.50;;;1.00;99.90;;;;;;5039892;28;20255;-80
2023/03/29 05:33:47;;;;;;;17.67;10.23;;;1.10;99.90;;;;;;5046669;28;20280;-81
2023/03/29 05:36:15;;;;;;;14.95;9.10;;;1.40;99.90;;;;;;5054621;28;20206;-79
2023/03/29 05:38:49;;;;;;;20.95;8.70;;;1.70;99.90;;;;;;5054138;28;20210;-79
2023/03/29 05:41:19;;;;;;;14.77;8.40;;;1.90;99.90;;;;;;5053252;28;20258;-81
2023/03/29 05:43:47;;;;;;;14.20;7.93;;;1.90;99.90;;;;;;5043938;28;20245;-80
2023/03/29 05:46:15;;;;;;;8.70;7.40;;;2.30;99.90;;;;;;5053705;28;20203;-82
2023/03/29 05:48:45;;;;;;;10.40;8.73;;;2.60;99.90;;;;;;5052853;28;20218;-81
2023/03/29 05:51:12;;;;;;;16.50;9.82;;;3.10;99.90;;;;;;5049872;28;20215;-79
2023/03/29 05:53:40;;;;;;;18.23;8.93;;;3.60;99.90;;;;;;5037162;28;20243;-79
2023/03/29 05:56:09;;;;;;;12.60;8.38;;;4.00;99.90;;;;;;5041185;28;20203;-81
2023/03/29 05:58:38;;;;;;;10.60;6.05;;;4.90;99.90;;;;;;5043074;28;20381;-80
2023/03/29 06:01:11;;;;;;;12.07;8.10;;;5.40;99.90;;;;;;5038069;28;20208;-79
2023/03/29 06:03:38;;;;;;;14.40;6.53;;;5.50;99.90;;;;;;5039616;28;20299;-80
2023/03/29 06:06:07;;;;;;;13.52;7.22;;;6.00;99.90;;;;;;5049937;28;20227;-78
2023/03/29 06:08:34;;;;;;;17.25;5.70;;;7.10;99.90;;;;;;5044660;28;20276;-80
2023/03/29 06:11:07;;;;;;;16.05;8.05;;;8.00;99.90;;;;;;5038511;28;20247;-79
2023/03/29 06:13:36;;;;;;;7.50;5.72;;;8.70;99.90;;;;;;5043771;28;20655;-80
2023/03/29 06:16:05;;;;;;;16.80;6.78;;;9.20;99.90;;;;;;5040153;28;20574;-80
2023/03/29 06:18:33;;;;;;;17.27;5.75;;;9.20;99.90;;;;;;5044824;28;20428;-79
2023/03/29 06:21:01;;;;;;;12.48;6.10;;;9.70;99.90;;;;;;5049030;28;20211;-81
2023/03/29 06:23:29;;;;;;;10.93;5.53;;;10.50;99.90;;;;;;5055915;28;20241;-80
2023/03/29 06:25:56;;;;;;;11.27;6.05;;;9.70;99.90;;;;;;5053492;28;20219;-81
2023/03/29 06:28:25;;;;;;;11.70;5.47;;;8.20;99.90;;;;;;5056089;28;20225;-81
2023/03/29 06:30:55;;;;;;;10.40;6.65;;;7.80;99.90;;;;;;5047338;28;20211;-83
2023/03/29 06:33:24;;;;;;;9.02;7.00;;;7.70;99.90;;;;;;5066485;28;20778;-82
2023/03/29 06:35:54;;;;;;;13.05;6.68;;;7.80;99.90;;;;;;5054946;28;20205;-82
2023/03/29 06:38:21;;;;;;;14.35;5.90;;;8.10;99.90;;;;;;5046512;28;20212;-83
2023/03/29 06:40:50;;;;;;;7.82;5.53;;;8.50;99.90;;;;;;5057637;28;20209;-83
2023/03/29 06:43:17;;;;;;;10.10;6.47;;;8.80;99.90;;;;;;5056673;28;20196;-81
2023/03/29 06:45:46;;;;;;;6.78;5.60;;;8.80;99.90;;;;;;5071811;28;20273;-82
2023/03/29 06:48:14;;;;;;;13.73;5.38;;;8.60;99.90;;;;;;5060841;28;20225;-83
2023/03/29 06:50:42;;;;;;;8.32;5.30;;;8.30;99.90;;;;;;5070721;28;20192;-84
2023/03/29 06:53:09;;;;;;;10.23;5.53;;;8.50;99.90;;;;;;5063525;28;20211;-86
2023/03/29 06:55:38;;;;;;;10.55;6.20;;;8.70;99.90;;;;;;5046697;28;20512;-84
2023/03/29 06:58:07;;;;;;;27.83;8.50;;;8.70;99.90;;;;;;5054019;28;20570;-82
2023/03/29 07:00:36;;;;;;;14.82;8.38;;;8.40;99.90;;;;;;5054422;28;20496;-85
2023/03/29 07:03:08;;;;;;;18.00;11.38;;;8.50;99.90;;;;;;5043684;28;20247;-83
2023/03/29 07:05:39;;;;;;;23.75;10.77;;;8.30;99.90;;;;;;5052385;28;20194;-83
2023/03/29 07:10:40;;;;;;;11.02;6.00;;;8.60;99.90;;;;;;5037956;28;20204;-82
2023/03/29 07:13:08;;;;;;;20.13;8.95;;;8.60;99.90;;;;;;5049319;28;20200;-81
2023/03/29 07:15:35;;;;;;;15.45;8.70;;;8.60;99.90;;;;;;5030539;28;20205;-81
2023/03/29 07:18:03;;;;;;;11.05;4.63;;;9.20;99.90;;;;;;5048067;28;20216;-80
2023/03/29 07:20:32;;;;;;;16.90;7.30;;;9.50;99.90;;;;;;5049285;28;20258;-81
2023/03/29 07:22:59;;;;;;;13.27;7.15;;;9.20;99.90;;;;;;5046384;28;20514;-79
2023/03/29 07:25:29;;;;;;;20.23;8.25;;;9.40;99.90;;;;;;5038959;28;20220;-80
2023/03/29 07:27:57;;;;;;;12.43;6.40;;;9.80;99.90;;;;;;5037996;28;20238;-80
2023/03/29 07:30:28;;;;;;;10.32;5.70;;;9.80;99.90;;;;;;5044836;28;20217;-80
2023/03/29 07:32:58;;;;;;;11.93;5.72;;;10.40;99.90;;;;;;5038954;28;20282;-80
2023/03/29 07:35:26;;;;;;;15.70;9.02;;;11.20;99.90;;;;;;5046375;28;20207;-81
2023/03/29 07:37:54;;;;;;;12.45;5.70;;;12.80;99.90;;;;;;5041378;28;20221;-80
2023/03/29 07:40:22;;;;;;;12.13;6.20;;;14.50;99.90;;;;;;5039294;28;20203;-79
2023/03/29 07:42:55;;;;;;;17.65;8.32;;;15.10;98.30;;;;;;5048292;28;20204;-81
2023/03/29 07:45:24;;;;;;;10.82;6.18;;;15.60;97.90;;;;;;5038727;28;20242;-80
2023/03/29 07:47:58;;;;;;;17.25;8.63;;;15.70;93.90;;;;;;5049812;28;20232;-79
2023/03/29 07:50:26;;;;;;;8.67;4.83;;;15.80;93.00;;;;;;5040465;28;20236;-80
2023/03/29 07:52:53;;;;;;;5.80;3.87;;;14.80;93.90;;;;;;5039352;28;20839;-80
2023/03/29 07:55:20;;;;;;;8.77;4.60;;;14.60;95.80;;;;;;5041908;28;20416;-79
2023/03/29 07:57:48;;;;;;;12.50;5.20;;;15.00;95.90;;;;;;5042344;28;20442;-79
2023/03/29 08:00:18;;;;;;;10.80;6.87;;;14.70;94.70;;;;;;5046757;28;20493;-78
2023/03/29 08:02:49;;;;;;;7.33;4.20;;;14.60;96.90;;;;;;5027290;28;20921;-78
2023/03/29 08:05:17;;;;;;;9.80;5.53;;;15.50;93.00;;;;;;5041227;28;20640;-78
2023/03/29 08:07:59;;;;;;;11.80;6.07;;;15.50;93.20;;;;;;5035703;28;20475;-78
2023/03/29 08:10:27;;;;;;;18.70;8.97;;;14.80;93.40;;;;;;5053446;28;20477;-79
2023/03/29 08:12:55;;;;;;;11.83;5.30;;;15.00;94.30;;;;;;5052267;28;20420;-78
2023/03/29 08:15:22;;;;;;;5.20;3.77;;;14.20;94.90;;;;;;5050627;28;20633;-79
2023/03/29 08:17:49;;;;;;;14.03;6.00;;;14.40;95.30;;;;;;5036323;28;20446;-79
2023/03/29 08:20:17;;;;;;;20.70;8.50;;;14.60;95.10;;;;;;5031055;28;20455;-78
2023/03/29 08:22:43;;;;;;;15.50;6.97;;;14.70;95.20;;;;;;5049987;28;20678;-78
2023/03/29 08:25:11;;;;;;;9.70;6.60;;;15.20;91.70;;;;;;5043094;28;20427;-78
2023/03/29 08:27:38;;;;;;;12.97;6.53;;;14.80;93.40;;;;;;5047280;28;20408;-78
2023/03/29 08:30:07;;;;;;;8.13;5.33;;;14.90;92.70;;;;;;5036622;28;20496;-78
2023/03/29 08:32:35;;;;;;;13.10;5.07;;;15.20;92.70;;;;;;5040684;28;20755;-79
2023/03/29 08:35:05;;;;;;;26.80;10.33;;;14.40;94.00;;;;;;5045611;28;20465;-80
2023/03/29 08:37:32;;;;;;;7.77;5.00;;;14.50;94.10;;;;;;5035756;28;20462;-79
2023/03/29 08:40:03;;;;;;;14.70;5.37;;;13.90;94.50;;;;;;5039744;28;20430;-79
2023/03/29 08:42:57;;;;;;;5.47;4.07;;;14.80;95.90;;;;;;5047251;28;20450;-79
2023/03/29 08:45:37;;;;;;;6.70;3.73;;;16.40;91.90;;;;;;5038645;28;20468;-79
2023/03/29 08:48:17;;;;;;;15.30;6.90;;;17.60;87.90;;;;;;5046909;28;20440;-79
2023/03/29 08:50:48;;;;;;;10.50;6.80;;;17.60;82.50;;;;;;5047894;28;20470;-79
2023/03/29 08:53:25;;;;;;;5.70;3.20;;;18.60;74.30;;;;;;5050636;28;20451;-78
2023/03/29 08:55:56;;;;;;;15.40;6.27;;;19.40;70.20;;;;;;5049794;28;20757;-79
2023/03/29 08:58:27;;;;;;;11.20;4.97;;;20.90;65.60;;;;;;5044371;28;20442;-78
2023/03/29 09:00:57;;;;;;;8.93;4.63;;;21.50;60.40;;;;;;5042492;28;20413;-79
2023/03/29 09:03:37;;;;;;;17.93;5.87;;;22.90;56.00;;;;;;5046857;28;20440;-79
2023/03/29 09:06:08;;;;;;;9.70;5.13;;;23.00;54.10;;;;;;5049841;28;20685;-78
2023/03/29 09:08:45;;;;;;;15.60;4.40;;;21.40;56.70;;;;;;5051032;28;20465;-78
2023/03/29 09:11:40;;;;;;;6.80;4.30;;;21.40;57.50;;;;;;5049320;28;20413;-79
2023/03/29 09:14:26;;;;;;;12.57;7.07;;;21.00;56.70;;;;;;5048425;28;20427;-79
2023/03/29 09:17:16;;;;;;;13.27;6.33;;;20.40;55.50;;;;;;5044999;28;20730;-79
2023/03/29 09:19:55;;;;;;;14.50;4.37;;;20.30;58.70;;;;;;5042208;28;20447;-78
2023/03/29 09:22:47;;;;;;;5.90;2.90;;;21.30;56.70;;;;;;5049909;28;20455;-78
2023/03/29 09:25:47;;;;;;;5.77;3.73;;;20.30;57.00;;;;;;5037968;28;20424;-78
2023/03/29 09:28:39;;;;;;;4.40;3.07;;;18.40;61.30;;;;;;5042150;28;20456;-79
2023/03/29 09:31:15;;;;;;;6.63;3.43;;;17.10;68.40;;;;;;5041138;28;20429;-78
2023/03/29 09:33:53;;;;;;;13.27;6.57;;;16.20;71.10;;;;;;5056043;28;20463;-79
2023/03/29 09:36:30;;;;;;;8.60;4.60;;;14.30;77.30;;;;;;5038133;28;20880;-78
2023/03/29 09:38:57;;;;;;;20.17;8.40;;;13.70;87.50;;;;;;5050212;28;20444;-78
2023/03/29 09:41:48;;;;;;;12.73;5.57;;;13.90;91.70;;;;;;5047934;28;20416;-79
2023/03/29 09:44:24;;;;;;;11.30;6.50;;;14.50;88.90;;;;;;5053250;28;20441;-78
2023/03/29 09:47:18;;;;;;;8.50;4.93;;;15.30;87.60;;;;;;5037247;28;20527;-79
2023/03/29 09:49:49;;;;;;;8.13;4.25;;;14.90;88.30;;;;;;5048576;28;20227;-80
2023/03/29 09:52:18;;;;;;;7.40;4.00;;;14.10;90.60;;;;;;5048271;28;20209;-78
2023/03/29 09:54:46;;;;;;;6.43;3.78;;;13.10;95.40;;;;;;5040298;28;20208;-77
2023/03/29 09:57:16;;;;;;;5.20;3.75;;;12.90;97.40;;;;;;5039481;28;20378;-79
2023/03/29 09:59:45;;;;;;;9.60;5.18;;;12.70;99.60;;;;;;5044511;28;20317;-79
2023/03/29 10:02:13;;;;;;;6.50;3.65;;;12.20;99.90;;;;;;5041509;28;20528;-78
2023/03/29 10:04:41;;;;;;;5.57;4.63;;;12.20;99.90;;;;;;5044612;28;20385;-77
2023/03/29 10:07:19;;;;;;;5.68;3.97;;;12.40;99.90;;;;;;5049023;28;20271;-78
2023/03/29 10:09:49;;;;;;;5.85;3.00;;;12.90;99.90;;;;;;5051401;28;20215;-78
2023/03/29 10:12:16;;;;;;;5.00;3.03;;;12.80;98.70;;;;;;5038326;28;20227;-80
2023/03/29 10:14:52;;;;;;;5.38;2.60;;;12.70;99.40;;;;;;5051871;28;20218;-77
2023/03/29 10:17:25;;;;;;;8.25;3.92;;;13.00;98.20;;;;;;5045352;28;20274;-79
2023/03/29 10:19:57;;;;;;;5.90;3.10;;;13.40;96.50;;;;;;5053819;28;20212;-78
2023/03/29 10:22:33;;;;;;;4.68;3.53;;;13.80;94.70;;;;;;5050152;28;20208;-80
2023/03/29 10:25:00;;;;;;;4.57;2.65;;;14.30;94.30;;;;;;5042822;28;20205;-79
2023/03/29 10:27:30;;;;;;;8.55;4.38;;;14.00;93.90;;;;;;5050058;28;20184;-80
2023/03/29 10:29:59;;;;;;;3.88;3.40;;;14.10;94.20;;;;;;5044719;28;20236;-78
2023/03/29 10:32:34;;;;;;;7.70;3.60;;;14.20;93.70;;;;;;5046320;28;20216;-78
2023/03/29 10:35:13;;;;;;;6.22;3.75;;;14.60;93.10;;;;;;5034434;28;20242;-78
2023/03/29 10:37:49;;;;;;;6.18;3.75;;;14.60;94.20;;;;;;5051611;28;20196;-79
2023/03/29 10:40:25;;;;;;;7.55;4.05;;;14.70;93.20;;;;;;5037960;28;20216;-80
2023/03/29 10:42:56;;;;;;;15.10;5.32;;;14.80;93.50;;;;;;5041744;28;20199;-79
2023/03/29 10:45:27;;;;;;;10.70;4.20;;;14.70;91.20;;;;;;5041626;28;20330;-79
2023/03/29 10:47:56;;;;;;;4.90;2.93;;;14.90;91.40;;;;;;5043301;28;20622;-79
2023/03/29 10:50:30;;;;;;;12.13;3.78;;;14.40;92.00;;;;;;5036709;28;20491;-79
2023/03/29 10:52:57;;;;;;;6.90;2.70;;;14.20;92.20;;;;;;5047860;28;20200;-78
2023/03/29 10:55:31;;;;;;;5.03;4.53;;;14.30;92.80;;;;;;5041137;28;20746;-80
2023/03/29 10:58:03;;;;;;;5.90;2.83;;;14.30;91.90;;;;;;5051034;28;20494;-78
2023/03/29 11:00:42;;;;;;;4.30;2.83;;;14.40;91.90;;;;;;5042133;28;20436;-78
2023/03/29 11:03:21;;;;;;;4.87;2.73;;;14.50;93.30;;;;;;5045587;28;20205;-77
2023/03/29 11:06:37;;;;;;;8.73;4.63;;;14.70;91.80;;;;;;5050117;28;20437;-79
2023/03/29 11:09:12;;;;;;;4.57;3.20;;;14.60;91.60;;;;;;5032533;28;20235;-79
2023/03/29 11:11:50;;;;;;;4.80;3.30;;;14.40;92.40;;;;;;5041862;28;20448;-80
2023/03/29 11:14:40;;;;;;;5.47;2.35;;;14.50;91.30;;;;;;5044650;28;20516;-78
2023/03/29 11:17:33;;;;;;;3.53;2.73;;;14.70;90.60;;;;;;5060399;28;20207;-80
2023/03/29 11:20:27;;;;;;;3.73;2.53;;;14.60;88.20;;;;;;5056760;28;20460;-80
2023/03/29 11:23:09;;;;;;;6.17;4.27;;;14.90;90.80;;;;;;5060326;28;20453;-79
2023/03/29 11:25:46;;;;;;;6.67;3.50;;;15.00;89.20;;;;;;5046398;28;20445;-79
2023/03/29 11:28:15;;;;;;;7.90;3.70;;;15.00;90.50;;;;;;5063850;28;20441;-79
2023/03/29 11:31:07;;;;;;;7.60;4.40;;;15.10;90.90;;;;;;5050294;28;20480;-79
2023/03/29 11:33:55;;;;;;;6.13;3.93;;;14.80;92.00;;;;;;5034512;28;20441;-78
2023/03/29 11:36:43;;;;;;;3.87;3.10;;;14.90;91.30;;;;;;5048836;28;20491;-79
2023/03/29 11:39:19;;;;;;;3.90;3.50;;;15.00;91.00;;;;;;5051701;28;20781;-80
2023/03/29 11:41:51;;;;;;;9.33;4.33;;;14.70;91.00;;;;;;5049650;28;20699;-79
2023/03/29 11:44:24;;;;;;;13.13;6.63;;;14.50;91.70;;;;;;5039457;28;20441;-79
2023/03/29 11:47:12;;;;;;;6.97;3.60;;;14.50;92.30;;;;;;5044678;28;20434;-79
2023/03/29 11:49:54;;;;;;;4.70;3.77;;;14.60;91.50;;;;;;5036752;28;20789;-78
2023/03/29 11:52:31;;;;;;;7.83;5.07;;;14.60;91.40;;;;;;5046211;28;20453;-81
2023/03/29 11:55:10;;;;;;;3.13;2.83;;;14.30;91.30;;;;;;5036472;28;20424;-79
2023/03/29 11:57:51;;;;;;;10.15;5.43;;;13.90;94.20;;;;;;5036110;28;20238;-79
2023/03/29 12:00:45;;;;;;;7.45;3.63;;;13.50;94.90;;;;;;5040609;28;20207;-80
2023/03/29 12:03:31;;;;;;;4.55;3.33;;;13.40;93.20;;;;;;5047870;28;20208;-80
2023/03/29 12:06:14;;;;;;;5.28;3.03;;;13.20;93.30;;;;;;5051521;28;20500;-79
2023/03/29 12:08:49;;;;;;;4.68;3.40;;;12.90;95.90;;;;;;5056163;28;20192;-80
2023/03/29 12:11:29;;;;;;;4.40;3.75;;;12.60;96.10;;;;;;5038271;28;20226;-79
2023/03/29 12:14:09;;;;;;;4.05;3.65;;;12.30;98.80;;;;;;5047100;28;20239;-79
2023/03/29 12:17:01;;;;;;;8.20;6.03;;;12.40;97.80;;;;;;5038895;28;20441;-80
2023/03/29 12:19:33;;;;;;;6.03;3.83;;;12.40;97.20;;;;;;5041032;28;20274;-82
2023/03/29 12:22:07;;;;;;;4.63;2.85;;;12.40;97.90;;;;;;5052351;28;20238;-79
2023/03/29 12:24:39;;;;;;;4.30;2.60;;;12.50;98.00;;;;;;5049518;28;20208;-81
2023/03/29 12:27:15;;;;;;;8.15;4.38;;;12.30;98.60;;;;;;5054585;28;20211;-78
2023/03/29 12:30:15;;;;;;;6.30;3.38;;;12.40;98.10;;;;;;5050584;28;20227;-79
2023/03/29 12:33:08;;;;;;;2.60;2.40;;;12.40;98.60;;;;;;5043250;28;20234;-78
2023/03/29 12:36:06;;;;;;;3.45;3.13;;;12.40;98.50;;;;;;5032879;28;20232;-80
2023/03/29 12:38:34;;;;;;;9.10;2.97;;;12.50;98.20;;;;;;5044977;28;20450;-79
2023/03/29 12:41:11;;;;;;;4.30;3.10;;;12.50;99.50;;;;;;5047300;28;20582;-79
2023/03/29 12:43:40;;;;;;;7.43;3.40;;;12.40;99.80;;;;;;5051245;28;20203;-79
2023/03/29 12:46:13;;;;;;;6.72;2.83;;;12.50;99.90;;;;;;5045895;28;20449;-80
2023/03/29 12:48:44;;;;;;;4.90;2.50;;;12.30;98.90;;;;;;5040328;28;20199;-80
2023/03/29 12:51:13;;;;;;;3.08;2.35;;;12.30;99.90;;;;;;5052801;28;20223;-80
2023/03/29 12:53:51;;;;;;;6.40;2.97;;;12.30;99.20;;;;;;5030553;28;20246;-79
2023/03/29 12:56:22;;;;;;;3.75;2.60;;;12.30;99.50;;;;;;5046134;28;20246;-82
2023/03/29 12:58:58;;;;;;;2.78;2.53;;;12.20;99.50;;;;;;5046671;28;20204;-77
2023/03/29 13:01:36;;;;;;;4.30;2.78;;;12.30;99.90;;;;;;5046478;28;20216;-79
2023/03/29 13:04:17;;;;;;;3.50;3.20;;;12.50;99.70;;;;;;5051481;28;20570;-80
2023/03/29 13:06:47;;;;;;;3.67;2.58;;;12.50;98.50;;;;;;5046492;28;20270;-79
2023/03/29 13:09:53;;;;;;;3.45;2.67;;;12.50;98.10;;;;;;5055902;28;20418;-80